sensor_id;sensor_type;location;lat;lon;timestamp;P1;P2;P0
72023;PMS5003;59889;50.700;5.440;2023-06-10T00:01:53;14;13;
72023;PMS5003;59889;50.700;5.440;2023-06-10T00:04:19;14;14;
72023;PMS5003;59889;50.700;5.440;2023-06-10T00:06:45;13;12;
72023;PMS5003;59889;50.700;5.440;2023-06-10T00:09:10;12;12;
72023;PMS5003;59889;50.700;5.440;2023-06-10T00:11:36;12;12;
72023;PMS5003;59889;50.700;5.440;2023-06-10T00:14:01;12;12;
72023;PMS5003;59889;50.700;5.440;2023-06-10T00:16:27;14;14;
72023;PMS5003;59889;50.700;5.440;2023-06-10T00:18:53;13;13;
72023;PMS5003;59889;50.700;5.440;2023-06-10T00:21:19;11;11;
72023;PMS5003;59889;50.700;5.440;2023-06-10T00:23:45;12;12;
72023;PMS5003;59889;50.700;5.440;2023-06-10T00:26:11;11;10;
72023;PMS5003;59889;50.700;5.440;2023-06-10T00:28:36;13;12;
72023;PMS5003;59889;50.700;5.440;2023-06-10T00:31:02;12;12;
72023;PMS5003;59889;50.700;5.440;2023-06-10T00:33:28;12;12;
72023;PMS5003;59889;50.700;5.440;2023-06-10T00:35:54;12;11;
72023;PMS5003;59889;50.700;5.440;2023-06-10T00:38:19;13;13;
72023;PMS5003;59889;50.700;5.440;2023-06-10T00:40:45;12;11;
72023;PMS5003;59889;50.700;5.440;2023-06-10T00:43:11;13;13;
72023;PMS5003;59889;50.700;5.440;2023-06-10T00:45:37;12;11;
72023;PMS5003;59889;50.700;5.440;2023-06-10T00:48:03;13;12;
72023;PMS5003;59889;50.700;5.440;2023-06-10T00:50:29;12;12;
72023;PMS5003;59889;50.700;5.440;2023-06-10T00:52:54;17;16;
72023;PMS5003;59889;50.700;5.440;2023-06-10T00:55:20;12;11;
72023;PMS5003;59889;50.700;5.440;2023-06-10T00:57:46;13;13;
72023;PMS5003;59889;50.700;5.440;2023-06-10T01:00:12;15;14;
72023;PMS5003;59889;50.700;5.440;2023-06-10T01:02:38;10;10;
72023;PMS5003;59889;50.700;5.440;2023-06-10T01:05:04;12;12;
72023;PMS5003;59889;50.700;5.440;2023-06-10T01:07:30;14;13;
72023;PMS5003;59889;50.700;5.440;2023-06-10T01:09:57;14;12;
72023;PMS5003;59889;50.700;5.440;2023-06-10T01:12:22;12;12;
72023;PMS5003;59889;50.700;5.440;2023-06-10T01:14:47;10;10;
72023;PMS5003;59889;50.700;5.440;2023-06-10T01:17:13;11;11;
72023;PMS5003;59889;50.700;5.440;2023-06-10T01:19:38;13;11;
72023;PMS5003;59889;50.700;5.440;2023-06-10T01:22:04;12;12;
72023;PMS5003;59889;50.700;5.440;2023-06-10T01:24:30;13;11;
72023;PMS5003;59889;50.700;5.440;2023-06-10T01:26:56;10;10;
72023;PMS5003;59889;50.700;5.440;2023-06-10T01:29:24;12;12;
72023;PMS5003;59889;50.700;5.440;2023-06-10T01:31:48;11;11;
72023;PMS5003;59889;50.700;5.440;2023-06-10T01:34:14;14;13;
72023;PMS5003;59889;50.700;5.440;2023-06-10T01:36:39;13;13;
72023;PMS5003;59889;50.700;5.440;2023-06-10T01:39:05;11;11;
72023;PMS5003;59889;50.700;5.440;2023-06-10T01:41:31;13;13;
72023;PMS5003;59889;50.700;5.440;2023-06-10T01:43:56;12;11;
72023;PMS5003;59889;50.700;5.440;2023-06-10T01:46:22;12;12;
72023;PMS5003;59889;50.700;5.440;2023-06-10T01:48:48;12;12;
72023;PMS5003;59889;50.700;5.440;2023-06-10T01:51:14;11;11;
72023;PMS5003;59889;50.700;5.440;2023-06-10T01:53:40;12;11;
72023;PMS5003;59889;50.700;5.440;2023-06-10T01:56:06;12;11;
72023;PMS5003;59889;50.700;5.440;2023-06-10T01:58:31;12;11;
72023;PMS5003;59889;50.700;5.440;2023-06-10T02:00:57;11;11;
72023;PMS5003;59889;50.700;5.440;2023-06-10T02:03:23;13;12;
72023;PMS5003;59889;50.700;5.440;2023-06-10T02:05:49;10;10;
72023;PMS5003;59889;50.700;5.440;2023-06-10T02:08:15;13;13;
72023;PMS5003;59889;50.700;5.440;2023-06-10T02:10:41;12;12;
72023;PMS5003;59889;50.700;5.440;2023-06-10T02:13:06;11;10;
72023;PMS5003;59889;50.700;5.440;2023-06-10T02:15:32;11;11;
72023;PMS5003;59889;50.700;5.440;2023-06-10T02:17:58;10;10;
72023;PMS5003;59889;50.700;5.440;2023-06-10T02:20:24;13;13;
72023;PMS5003;59889;50.700;5.440;2023-06-10T02:22:50;8;8;
72023;PMS5003;59889;50.700;5.440;2023-06-10T02:25:15;12;12;
72023;PMS5003;59889;50.700;5.440;2023-06-10T02:27:41;13;12;
72023;PMS5003;59889;50.700;5.440;2023-06-10T02:30:07;12;12;
72023;PMS5003;59889;50.700;5.440;2023-06-10T02:32:33;13;13;
72023;PMS5003;59889;50.700;5.440;2023-06-10T02:34:59;12;11;
72023;PMS5003;59889;50.700;5.440;2023-06-10T02:37:25;12;11;
72023;PMS5003;59889;50.700;5.440;2023-06-10T02:39:50;11;11;
72023;PMS5003;59889;50.700;5.440;2023-06-10T02:42:16;12;11;
72023;PMS5003;59889;50.700;5.440;2023-06-10T02:44:42;11;11;
72023;PMS5003;59889;50.700;5.440;2023-06-10T02:47:08;12;11;
72023;PMS5003;59889;50.700;5.440;2023-06-10T02:49:34;10;10;
72023;PMS5003;59889;50.700;5.440;2023-06-10T02:52:00;11;11;
72023;PMS5003;59889;50.700;5.440;2023-06-10T02:54:25;11;11;
72023;PMS5003;59889;50.700;5.440;2023-06-10T02:56:52;11;11;
72023;PMS5003;59889;50.700;5.440;2023-06-10T02:59:17;10;10;
72023;PMS5003;59889;50.700;5.440;2023-06-10T03:01:43;9;9;
72023;PMS5003;59889;50.700;5.440;2023-06-10T03:04:09;12;12;
72023;PMS5003;59889;50.700;5.440;2023-06-10T03:06:35;11;11;
72023;PMS5003;59889;50.700;5.440;2023-06-10T03:09:00;12;12;
72023;PMS5003;59889;50.700;5.440;2023-06-10T03:11:26;13;12;
72023;PMS5003;59889;50.700;5.440;2023-06-10T03:13:51;10;10;
72023;PMS5003;59889;50.700;5.440;2023-06-10T03:16:17;12;11;
72023;PMS5003;59889;50.700;5.440;2023-06-10T03:18:43;10;10;
72023;PMS5003;59889;50.700;5.440;2023-06-10T03:21:08;11;11;
72023;PMS5003;59889;50.700;5.440;2023-06-10T03:23:34;12;12;
72023;PMS5003;59889;50.700;5.440;2023-06-10T03:26:00;11;11;
72023;PMS5003;59889;50.700;5.440;2023-06-10T03:28:26;11;11;
72023;PMS5003;59889;50.700;5.440;2023-06-10T03:30:52;11;11;
72023;PMS5003;59889;50.700;5.440;2023-06-10T03:33:18;10;10;
72023;PMS5003;59889;50.700;5.440;2023-06-10T03:35:44;11;11;
72023;PMS5003;59889;50.700;5.440;2023-06-10T03:38:09;11;11;
72023;PMS5003;59889;50.700;5.440;2023-06-10T03:40:35;11;11;
72023;PMS5003;59889;50.700;5.440;2023-06-10T03:43:01;9;8;
72023;PMS5003;59889;50.700;5.440;2023-06-10T03:45:27;9;9;
72023;PMS5003;59889;50.700;5.440;2023-06-10T03:47:53;11;10;
72023;PMS5003;59889;50.700;5.440;2023-06-10T03:50:19;9;9;
72023;PMS5003;59889;50.700;5.440;2023-06-10T03:52:44;11;10;
72023;PMS5003;59889;50.700;5.440;2023-06-10T03:55:10;11;10;
72023;PMS5003;59889;50.700;5.440;2023-06-10T03:57:36;12;12;
72023;PMS5003;59889;50.700;5.440;2023-06-10T04:00:02;11;11;
72023;PMS5003;59889;50.700;5.440;2023-06-10T04:02:28;10;9;
72023;PMS5003;59889;50.700;5.440;2023-06-10T04:04:53;12;12;
72023;PMS5003;59889;50.700;5.440;2023-06-10T04:07:19;10;10;
72023;PMS5003;59889;50.700;5.440;2023-06-10T04:09:45;12;12;
72023;PMS5003;59889;50.700;5.440;2023-06-10T04:12:11;8;8;
72023;PMS5003;59889;50.700;5.440;2023-06-10T04:14:37;11;11;
72023;PMS5003;59889;50.700;5.440;2023-06-10T04:17:04;10;10;
72023;PMS5003;59889;50.700;5.440;2023-06-10T04:19:29;9;9;
72023;PMS5003;59889;50.700;5.440;2023-06-10T04:21:54;10;10;
72023;PMS5003;59889;50.700;5.440;2023-06-10T04:24:20;9;9;
72023;PMS5003;59889;50.700;5.440;2023-06-10T04:26:46;10;10;
72023;PMS5003;59889;50.700;5.440;2023-06-10T04:29:12;10;10;
72023;PMS5003;59889;50.700;5.440;2023-06-10T04:31:38;10;10;
72023;PMS5003;59889;50.700;5.440;2023-06-10T04:34:04;11;11;
72023;PMS5003;59889;50.700;5.440;2023-06-10T04:36:29;11;11;
72023;PMS5003;59889;50.700;5.440;2023-06-10T04:38:55;11;11;
72023;PMS5003;59889;50.700;5.440;2023-06-10T04:41:21;10;10;
72023;PMS5003;59889;50.700;5.440;2023-06-10T04:43:47;13;12;
72023;PMS5003;59889;50.700;5.440;2023-06-10T04:46:13;9;9;
72023;PMS5003;59889;50.700;5.440;2023-06-10T04:48:39;10;10;
72023;PMS5003;59889;50.700;5.440;2023-06-10T04:51:04;11;10;
72023;PMS5003;59889;50.700;5.440;2023-06-10T04:53:30;8;8;
72023;PMS5003;59889;50.700;5.440;2023-06-10T04:55:56;8;8;
72023;PMS5003;59889;50.700;5.440;2023-06-10T04:58:22;10;9;
72023;PMS5003;59889;50.700;5.440;2023-06-10T05:00:48;11;10;
72023;PMS5003;59889;50.700;5.440;2023-06-10T05:03:13;11;10;
72023;PMS5003;59889;50.700;5.440;2023-06-10T05:05:39;11;11;
72023;PMS5003;59889;50.700;5.440;2023-06-10T05:08:05;9;9;
72023;PMS5003;59889;50.700;5.440;2023-06-10T05:10:31;10;9;
72023;PMS5003;59889;50.700;5.440;2023-06-10T05:12:57;10;10;
72023;PMS5003;59889;50.700;5.440;2023-06-10T05:15:23;11;10;
72023;PMS5003;59889;50.700;5.440;2023-06-10T05:17:48;13;11;
72023;PMS5003;59889;50.700;5.440;2023-06-10T05:20:14;11;10;
72023;PMS5003;59889;50.700;5.440;2023-06-10T05:22:40;11;11;
72023;PMS5003;59889;50.700;5.440;2023-06-10T05:25:06;8;8;
72023;PMS5003;59889;50.700;5.440;2023-06-10T05:27:31;10;10;
72023;PMS5003;59889;50.700;5.440;2023-06-10T05:29:57;10;10;
72023;PMS5003;59889;50.700;5.440;2023-06-10T05:32:23;11;10;
72023;PMS5003;59889;50.700;5.440;2023-06-10T05:34:49;11;11;
72023;PMS5003;59889;50.700;5.440;2023-06-10T05:37:15;10;10;
72023;PMS5003;59889;50.700;5.440;2023-06-10T05:39:41;9;9;
72023;PMS5003;59889;50.700;5.440;2023-06-10T05:42:07;13;12;
72023;PMS5003;59889;50.700;5.440;2023-06-10T05:44:32;17;17;
72023;PMS5003;59889;50.700;5.440;2023-06-10T05:46:58;16;16;
72023;PMS5003;59889;50.700;5.440;2023-06-10T05:49:24;15;15;
72023;PMS5003;59889;50.700;5.440;2023-06-10T05:51:50;15;15;
72023;PMS5003;59889;50.700;5.440;2023-06-10T05:54:16;15;14;
72023;PMS5003;59889;50.700;5.440;2023-06-10T05:56:42;15;15;
72023;PMS5003;59889;50.700;5.440;2023-06-10T05:59:07;21;18;
72023;PMS5003;59889;50.700;5.440;2023-06-10T06:01:33;16;15;
72023;PMS5003;59889;50.700;5.440;2023-06-10T06:03:58;19;17;
72023;PMS5003;59889;50.700;5.440;2023-06-10T06:06:24;17;17;
72023;PMS5003;59889;50.700;5.440;2023-06-10T06:08:50;15;15;
72023;PMS5003;59889;50.700;5.440;2023-06-10T06:11:16;15;14;
72023;PMS5003;59889;50.700;5.440;2023-06-10T06:13:42;17;17;
72023;PMS5003;59889;50.700;5.440;2023-06-10T06:16:07;18;17;
72023;PMS5003;59889;50.700;5.440;2023-06-10T06:18:33;21;20;
72023;PMS5003;59889;50.700;5.440;2023-06-10T06:20:59;25;22;
72023;PMS5003;59889;50.700;5.440;2023-06-10T06:23:25;23;22;
72023;PMS5003;59889;50.700;5.440;2023-06-10T06:25:51;20;19;
72023;PMS5003;59889;50.700;5.440;2023-06-10T06:28:17;21;21;
72023;PMS5003;59889;50.700;5.440;2023-06-10T06:30:42;23;22;
72023;PMS5003;59889;50.700;5.440;2023-06-10T06:33:08;22;22;
72023;PMS5003;59889;50.700;5.440;2023-06-10T06:35:33;20;19;
72023;PMS5003;59889;50.700;5.440;2023-06-10T06:37:59;24;23;
72023;PMS5003;59889;50.700;5.440;2023-06-10T06:40:25;26;25;
72023;PMS5003;59889;50.700;5.440;2023-06-10T06:42:50;28;27;
72023;PMS5003;59889;50.700;5.440;2023-06-10T06:45:16;25;24;
72023;PMS5003;59889;50.700;5.440;2023-06-10T06:47:41;23;22;
72023;PMS5003;59889;50.700;5.440;2023-06-10T06:50:07;21;19;
72023;PMS5003;59889;50.700;5.440;2023-06-10T06:52:32;21;20;
72023;PMS5003;59889;50.700;5.440;2023-06-10T06:54:58;23;22;
72023;PMS5003;59889;50.700;5.440;2023-06-10T06:57:23;29;27;
72023;PMS5003;59889;50.700;5.440;2023-06-10T06:59:48;24;22;
72023;PMS5003;59889;50.700;5.440;2023-06-10T07:02:14;22;21;
72023;PMS5003;59889;50.700;5.440;2023-06-10T07:04:40;23;23;
72023;PMS5003;59889;50.700;5.440;2023-06-10T07:07:06;23;23;
72023;PMS5003;59889;50.700;5.440;2023-06-10T07:09:31;22;22;
72023;PMS5003;59889;50.700;5.440;2023-06-10T07:11:57;21;21;
72023;PMS5003;59889;50.700;5.440;2023-06-10T07:14:22;23;23;
72023;PMS5003;59889;50.700;5.440;2023-06-10T07:16:48;24;23;
72023;PMS5003;59889;50.700;5.440;2023-06-10T07:19:14;19;19;
72023;PMS5003;59889;50.700;5.440;2023-06-10T07:21:39;25;24;
72023;PMS5003;59889;50.700;5.440;2023-06-10T07:24:05;26;25;
72023;PMS5003;59889;50.700;5.440;2023-06-10T07:26:30;20;20;
72023;PMS5003;59889;50.700;5.440;2023-06-10T07:28:56;22;22;
72023;PMS5003;59889;50.700;5.440;2023-06-10T07:31:22;24;24;
72023;PMS5003;59889;50.700;5.440;2023-06-10T07:33:47;24;22;
72023;PMS5003;59889;50.700;5.440;2023-06-10T07:36:12;23;23;
72023;PMS5003;59889;50.700;5.440;2023-06-10T07:38:38;21;21;
72023;PMS5003;59889;50.700;5.440;2023-06-10T07:41:03;20;20;
72023;PMS5003;59889;50.700;5.440;2023-06-10T07:43:29;23;22;
72023;PMS5003;59889;50.700;5.440;2023-06-10T07:45:54;24;23;
72023;PMS5003;59889;50.700;5.440;2023-06-10T07:48:19;24;22;
72023;PMS5003;59889;50.700;5.440;2023-06-10T07:50:45;23;23;
72023;PMS5003;59889;50.700;5.440;2023-06-10T07:53:10;22;22;
72023;PMS5003;59889;50.700;5.440;2023-06-10T07:55:36;26;24;
72023;PMS5003;59889;50.700;5.440;2023-06-10T07:58:01;24;23;
72023;PMS5003;59889;50.700;5.440;2023-06-10T08:00:27;27;26;
72023;PMS5003;59889;50.700;5.440;2023-06-10T08:02:52;26;26;
72023;PMS5003;59889;50.700;5.440;2023-06-10T08:05:18;26;25;
72023;PMS5003;59889;50.700;5.440;2023-06-10T08:07:44;27;24;
72023;PMS5003;59889;50.700;5.440;2023-06-10T08:10:10;22;21;
72023;PMS5003;59889;50.700;5.440;2023-06-10T08:12:35;27;25;
72023;PMS5003;59889;50.700;5.440;2023-06-10T08:15:01;28;24;
72023;PMS5003;59889;50.700;5.440;2023-06-10T08:17:26;27;25;
72023;PMS5003;59889;50.700;5.440;2023-06-10T08:19:52;29;27;
72023;PMS5003;59889;50.700;5.440;2023-06-10T08:22:17;25;24;
72023;PMS5003;59889;50.700;5.440;2023-06-10T08:24:43;25;23;
72023;PMS5003;59889;50.700;5.440;2023-06-10T08:27:08;29;27;
72023;PMS5003;59889;50.700;5.440;2023-06-10T08:29:34;25;24;
72023;PMS5003;59889;50.700;5.440;2023-06-10T08:31:59;28;24;
72023;PMS5003;59889;50.700;5.440;2023-06-10T08:34:25;22;21;
72023;PMS5003;59889;50.700;5.440;2023-06-10T08:36:50;28;27;
72023;PMS5003;59889;50.700;5.440;2023-06-10T08:39:16;26;23;
72023;PMS5003;59889;50.700;5.440;2023-06-10T08:41:43;26;26;
72023;PMS5003;59889;50.700;5.440;2023-06-10T08:44:08;25;24;
72023;PMS5003;59889;50.700;5.440;2023-06-10T08:46:33;28;27;
72023;PMS5003;59889;50.700;5.440;2023-06-10T08:48:59;24;24;
72023;PMS5003;59889;50.700;5.440;2023-06-10T08:51:24;26;26;
72023;PMS5003;59889;50.700;5.440;2023-06-10T08:53:50;30;26;
72023;PMS5003;59889;50.700;5.440;2023-06-10T08:56:15;26;26;
72023;PMS5003;59889;50.700;5.440;2023-06-10T08:58:41;26;25;
72023;PMS5003;59889;50.700;5.440;2023-06-10T09:01:07;26;25;
72023;PMS5003;59889;50.700;5.440;2023-06-10T09:03:32;25;23;
72023;PMS5003;59889;50.700;5.440;2023-06-10T09:05:57;29;27;
72023;PMS5003;59889;50.700;5.440;2023-06-10T09:08:22;32;29;
72023;PMS5003;59889;50.700;5.440;2023-06-10T09:10:48;26;25;
72023;PMS5003;59889;50.700;5.440;2023-06-10T09:13:13;24;24;
72023;PMS5003;59889;50.700;5.440;2023-06-10T09:15:39;24;23;
72023;PMS5003;59889;50.700;5.440;2023-06-10T09:18:04;25;23;
72023;PMS5003;59889;50.700;5.440;2023-06-10T09:20:30;28;27;
72023;PMS5003;59889;50.700;5.440;2023-06-10T09:22:56;24;24;
72023;PMS5003;59889;50.700;5.440;2023-06-10T09:25:21;24;23;
72023;PMS5003;59889;50.700;5.440;2023-06-10T09:27:48;22;22;
72023;PMS5003;59889;50.700;5.440;2023-06-10T09:32:38;24;24;
72023;PMS5003;59889;50.700;5.440;2023-06-10T09:35:08;26;26;
72023;PMS5003;59889;50.700;5.440;2023-06-10T09:37:30;24;23;
72023;PMS5003;59889;50.700;5.440;2023-06-10T09:40:01;24;23;
72023;PMS5003;59889;50.700;5.440;2023-06-10T09:42:21;23;22;
72023;PMS5003;59889;50.700;5.440;2023-06-10T09:44:50;25;23;
72023;PMS5003;59889;50.700;5.440;2023-06-10T09:47:12;25;25;
72023;PMS5003;59889;50.700;5.440;2023-06-10T09:49:38;27;27;
72023;PMS5003;59889;50.700;5.440;2023-06-10T09:52:04;24;24;
72023;PMS5003;59889;50.700;5.440;2023-06-10T09:54:31;22;22;
72023;PMS5003;59889;50.700;5.440;2023-06-10T09:56:55;25;24;
72023;PMS5003;59889;50.700;5.440;2023-06-10T10:01:48;23;23;
72023;PMS5003;59889;50.700;5.440;2023-06-10T10:04:12;23;23;
72023;PMS5003;59889;50.700;5.440;2023-06-10T10:06:38;25;25;
72023;PMS5003;59889;50.700;5.440;2023-06-10T10:09:04;22;22;
72023;PMS5003;59889;50.700;5.440;2023-06-10T10:11:30;23;22;
72023;PMS5003;59889;50.700;5.440;2023-06-10T10:13:55;27;26;
72023;PMS5003;59889;50.700;5.440;2023-06-10T10:16:21;23;23;
72023;PMS5003;59889;50.700;5.440;2023-06-10T10:18:48;28;28;
72023;PMS5003;59889;50.700;5.440;2023-06-10T10:21:13;24;23;
72023;PMS5003;59889;50.700;5.440;2023-06-10T10:23:39;24;23;
72023;PMS5003;59889;50.700;5.440;2023-06-10T10:26:03;27;27;
72023;PMS5003;59889;50.700;5.440;2023-06-10T10:28:29;26;26;
72023;PMS5003;59889;50.700;5.440;2023-06-10T10:30:54;26;25;
72023;PMS5003;59889;50.700;5.440;2023-06-10T10:33:20;25;24;
72023;PMS5003;59889;50.700;5.440;2023-06-10T10:35:45;25;24;
72023;PMS5003;59889;50.700;5.440;2023-06-10T10:38:11;23;23;
72023;PMS5003;59889;50.700;5.440;2023-06-10T10:40:36;29;28;
72023;PMS5003;59889;50.700;5.440;2023-06-10T10:43:02;24;24;
72023;PMS5003;59889;50.700;5.440;2023-06-10T10:45:28;26;26;
72023;PMS5003;59889;50.700;5.440;2023-06-10T10:47:53;29;26;
72023;PMS5003;59889;50.700;5.440;2023-06-10T10:50:19;29;27;
72023;PMS5003;59889;50.700;5.440;2023-06-10T10:52:47;29;25;
72023;PMS5003;59889;50.700;5.440;2023-06-10T10:55:12;24;23;
72023;PMS5003;59889;50.700;5.440;2023-06-10T10:57:37;23;22;
72023;PMS5003;59889;50.700;5.440;2023-06-10T11:00:02;23;23;
72023;PMS5003;59889;50.700;5.440;2023-06-10T11:02:32;24;22;
72023;PMS5003;59889;50.700;5.440;2023-06-10T11:04:53;26;25;
72023;PMS5003;59889;50.700;5.440;2023-06-10T11:07:20;26;25;
72023;PMS5003;59889;50.700;5.440;2023-06-10T11:12:10;23;22;
72023;PMS5003;59889;50.700;5.440;2023-06-10T11:14:36;26;24;
72023;PMS5003;59889;50.700;5.440;2023-06-10T11:17:01;24;24;
72023;PMS5003;59889;50.700;5.440;2023-06-10T11:19:32;22;22;
72023;PMS5003;59889;50.700;5.440;2023-06-10T11:21:57;25;24;
72023;PMS5003;59889;50.700;5.440;2023-06-10T11:24:17;22;22;
72023;PMS5003;59889;50.700;5.440;2023-06-10T11:26:43;24;22;
72023;PMS5003;59889;50.700;5.440;2023-06-10T11:29:08;22;21;
72023;PMS5003;59889;50.700;5.440;2023-06-10T11:31:38;23;23;
72023;PMS5003;59889;50.700;5.440;2023-06-10T11:34:00;22;21;
72023;PMS5003;59889;50.700;5.440;2023-06-10T11:36:25;23;23;
72023;PMS5003;59889;50.700;5.440;2023-06-10T11:38:53;23;23;
72023;PMS5003;59889;50.700;5.440;2023-06-10T11:41:17;20;20;
72023;PMS5003;59889;50.700;5.440;2023-06-10T11:43:42;22;22;
72023;PMS5003;59889;50.700;5.440;2023-06-10T11:46:08;20;20;
72023;PMS5003;59889;50.700;5.440;2023-06-10T11:48:33;19;19;
72023;PMS5003;59889;50.700;5.440;2023-06-10T11:50:59;20;20;
72023;PMS5003;59889;50.700;5.440;2023-06-10T11:53:25;21;20;
72023;PMS5003;59889;50.700;5.440;2023-06-10T11:55:51;20;19;
72023;PMS5003;59889;50.700;5.440;2023-06-10T11:58:17;21;20;
72023;PMS5003;59889;50.700;5.440;2023-06-10T12:00:44;22;22;
72023;PMS5003;59889;50.700;5.440;2023-06-10T12:03:08;18;18;
72023;PMS5003;59889;50.700;5.440;2023-06-10T12:05:34;22;21;
72023;PMS5003;59889;50.700;5.440;2023-06-10T12:10:25;20;19;
72023;PMS5003;59889;50.700;5.440;2023-06-10T12:12:50;18;18;
72023;PMS5003;59889;50.700;5.440;2023-06-10T12:17:42;20;20;
72023;PMS5003;59889;50.700;5.440;2023-06-10T12:20:09;20;19;
72023;PMS5003;59889;50.700;5.440;2023-06-10T12:22:37;19;19;
72023;PMS5003;59889;50.700;5.440;2023-06-10T12:25:00;24;24;
72023;PMS5003;59889;50.700;5.440;2023-06-10T12:27:24;20;20;
72023;PMS5003;59889;50.700;5.440;2023-06-10T12:29:50;18;18;
72023;PMS5003;59889;50.700;5.440;2023-06-10T12:32:15;21;21;
72023;PMS5003;59889;50.700;5.440;2023-06-10T12:34:41;24;22;
72023;PMS5003;59889;50.700;5.440;2023-06-10T12:37:09;20;18;
72023;PMS5003;59889;50.700;5.440;2023-06-10T12:39:33;21;20;
72023;PMS5003;59889;50.700;5.440;2023-06-10T12:41:59;17;17;
72023;PMS5003;59889;50.700;5.440;2023-06-10T12:44:30;19;19;
72023;PMS5003;59889;50.700;5.440;2023-06-10T12:46:53;22;22;
72023;PMS5003;59889;50.700;5.440;2023-06-10T12:49:18;20;18;
72023;PMS5003;59889;50.700;5.440;2023-06-10T12:51:40;18;18;
72023;PMS5003;59889;50.700;5.440;2023-06-10T12:54:06;20;20;
72023;PMS5003;59889;50.700;5.440;2023-06-10T12:56:32;20;20;
72023;PMS5003;59889;50.700;5.440;2023-06-10T12:58:57;23;22;
72023;PMS5003;59889;50.700;5.440;2023-06-10T13:01:23;19;19;
72023;PMS5003;59889;50.700;5.440;2023-06-10T13:03:48;21;20;
72023;PMS5003;59889;50.700;5.440;2023-06-10T13:06:13;22;21;
72023;PMS5003;59889;50.700;5.440;2023-06-10T13:08:39;21;21;
72023;PMS5003;59889;50.700;5.440;2023-06-10T13:11:05;19;19;
72023;PMS5003;59889;50.700;5.440;2023-06-10T13:13:31;18;18;
72023;PMS5003;59889;50.700;5.440;2023-06-10T13:15:56;19;19;
72023;PMS5003;59889;50.700;5.440;2023-06-10T13:18:22;17;17;
72023;PMS5003;59889;50.700;5.440;2023-06-10T13:20:48;16;16;
72023;PMS5003;59889;50.700;5.440;2023-06-10T13:23:14;18;18;
72023;PMS5003;59889;50.700;5.440;2023-06-10T13:25:39;21;18;
72023;PMS5003;59889;50.700;5.440;2023-06-10T13:28:05;17;17;
72023;PMS5003;59889;50.700;5.440;2023-06-10T13:30:31;17;16;
72023;PMS5003;59889;50.700;5.440;2023-06-10T13:32:56;19;18;
72023;PMS5003;59889;50.700;5.440;2023-06-10T13:35:22;18;17;
72023;PMS5003;59889;50.700;5.440;2023-06-10T13:37:47;19;18;
72023;PMS5003;59889;50.700;5.440;2023-06-10T13:40:13;19;18;
72023;PMS5003;59889;50.700;5.440;2023-06-10T13:42:38;19;19;
72023;PMS5003;59889;50.700;5.440;2023-06-10T13:45:04;19;18;
72023;PMS5003;59889;50.700;5.440;2023-06-10T13:47:30;19;17;
72023;PMS5003;59889;50.700;5.440;2023-06-10T13:49:55;22;21;
72023;PMS5003;59889;50.700;5.440;2023-06-10T13:52:21;21;20;
72023;PMS5003;59889;50.700;5.440;2023-06-10T13:54:47;18;18;
72023;PMS5003;59889;50.700;5.440;2023-06-10T13:57:13;17;16;
72023;PMS5003;59889;50.700;5.440;2023-06-10T13:59:39;20;20;
72023;PMS5003;59889;50.700;5.440;2023-06-10T14:02:04;19;19;
72023;PMS5003;59889;50.700;5.440;2023-06-10T14:04:30;18;18;
72023;PMS5003;59889;50.700;5.440;2023-06-10T14:06:56;19;19;
72023;PMS5003;59889;50.700;5.440;2023-06-10T14:09:22;22;21;
72023;PMS5003;59889;50.700;5.440;2023-06-10T14:11:47;15;15;
72023;PMS5003;59889;50.700;5.440;2023-06-10T14:14:13;20;19;
72023;PMS5003;59889;50.700;5.440;2023-06-10T14:16:39;18;18;
72023;PMS5003;59889;50.700;5.440;2023-06-10T14:19:04;19;18;
72023;PMS5003;59889;50.700;5.440;2023-06-10T14:21:30;16;16;
72023;PMS5003;59889;50.700;5.440;2023-06-10T14:23:56;17;17;
72023;PMS5003;59889;50.700;5.440;2023-06-10T14:26:22;17;16;
72023;PMS5003;59889;50.700;5.440;2023-06-10T14:28:48;21;19;
72023;PMS5003;59889;50.700;5.440;2023-06-10T14:31:14;17;17;
72023;PMS5003;59889;50.700;5.440;2023-06-10T14:33:39;19;18;
72023;PMS5003;59889;50.700;5.440;2023-06-10T14:36:05;14;14;
72023;PMS5003;59889;50.700;5.440;2023-06-10T14:38:31;18;18;
72023;PMS5003;59889;50.700;5.440;2023-06-10T14:40:57;16;16;
72023;PMS5003;59889;50.700;5.440;2023-06-10T14:43:23;18;18;
72023;PMS5003;59889;50.700;5.440;2023-06-10T14:45:48;17;16;
72023;PMS5003;59889;50.700;5.440;2023-06-10T14:48:14;18;18;
72023;PMS5003;59889;50.700;5.440;2023-06-10T14:50:40;16;16;
72023;PMS5003;59889;50.700;5.440;2023-06-10T14:53:06;17;17;
72023;PMS5003;59889;50.700;5.440;2023-06-10T14:55:32;17;17;
72023;PMS5003;59889;50.700;5.440;2023-06-10T14:57:57;16;16;
72023;PMS5003;59889;50.700;5.440;2023-06-10T15:00:23;17;17;
72023;PMS5003;59889;50.700;5.440;2023-06-10T15:02:49;15;15;
72023;PMS5003;59889;50.700;5.440;2023-06-10T15:05:15;19;17;
72023;PMS5003;59889;50.700;5.440;2023-06-10T15:07:41;15;14;
72023;PMS5003;59889;50.700;5.440;2023-06-10T15:10:07;15;15;
72023;PMS5003;59889;50.700;5.440;2023-06-10T15:12:32;16;16;
72023;PMS5003;59889;50.700;5.440;2023-06-10T15:14:58;19;18;
72023;PMS5003;59889;50.700;5.440;2023-06-10T15:17:24;15;14;
72023;PMS5003;59889;50.700;5.440;2023-06-10T15:19:50;19;16;
72023;PMS5003;59889;50.700;5.440;2023-06-10T15:22:15;13;13;
72023;PMS5003;59889;50.700;5.440;2023-06-10T15:24:41;16;15;
72023;PMS5003;59889;50.700;5.440;2023-06-10T15:27:07;16;15;
72023;PMS5003;59889;50.700;5.440;2023-06-10T15:29:33;16;16;
72023;PMS5003;59889;50.700;5.440;2023-06-10T15:31:58;14;14;
72023;PMS5003;59889;50.700;5.440;2023-06-10T15:34:24;16;16;
72023;PMS5003;59889;50.700;5.440;2023-06-10T15:36:50;17;17;
72023;PMS5003;59889;50.700;5.440;2023-06-10T15:39:16;18;18;
72023;PMS5003;59889;50.700;5.440;2023-06-10T15:41:42;16;16;
72023;PMS5003;59889;50.700;5.440;2023-06-10T15:44:07;15;14;
72023;PMS5003;59889;50.700;5.440;2023-06-10T15:46:33;17;15;
72023;PMS5003;59889;50.700;5.440;2023-06-10T15:48:59;17;16;
72023;PMS5003;59889;50.700;5.440;2023-06-10T15:51:25;16;15;
72023;PMS5003;59889;50.700;5.440;2023-06-10T15:53:51;16;15;
72023;PMS5003;59889;50.700;5.440;2023-06-10T15:56:16;16;16;
72023;PMS5003;59889;50.700;5.440;2023-06-10T15:58:42;14;13;
72023;PMS5003;59889;50.700;5.440;2023-06-10T16:01:08;15;15;
72023;PMS5003;59889;50.700;5.440;2023-06-10T16:03:34;14;14;
72023;PMS5003;59889;50.700;5.440;2023-06-10T16:06:00;14;14;
72023;PMS5003;59889;50.700;5.440;2023-06-10T16:08:25;14;14;
72023;PMS5003;59889;50.700;5.440;2023-06-10T16:10:51;14;13;
72023;PMS5003;59889;50.700;5.440;2023-06-10T16:13:17;15;14;
72023;PMS5003;59889;50.700;5.440;2023-06-10T16:15:42;14;13;
72023;PMS5003;59889;50.700;5.440;2023-06-10T16:18:08;13;13;
72023;PMS5003;59889;50.700;5.440;2023-06-10T16:20:34;15;15;